Time;durP1;ratioP1;P1;durP2;ratioP2;P2;SDS_P1;SDS_P2;PMS_P1;PMS_P2;Temp;Humidity;BMP_temperature;BMP_pressure;BME280_temperature;BME280_humidity;BME280_pressure;Samples;Min_cycle;Max_cycle;Signal;HPM_P1;HPM_P2
2023/11/28 00:00:09;;;;;;;9.80;7.65;;;2.70;99.90;;;;;;2009497;29;20428;-76
2023/11/28 00:01:15;;;;;;;8.90;7.10;;;2.70;99.90;;;;;;2010462;29;20025;-77
2023/11/28 00:02:15;;;;;;;9.82;7.57;;;2.70;99.90;;;;;;2011411;29;20029;-76
2023/11/28 00:03:16;;;;;;;10.23;8.05;;;2.70;99.90;;;;;;2008590;29;20148;-76
2023/11/28 00:04:17;;;;;;;13.32;10.20;;;2.70;99.90;;;;;;2009334;29;20184;-77
2023/11/28 00:05:17;;;;;;;13.65;9.95;;;2.70;99.90;;;;;;2008988;29;20107;-75
2023/11/28 00:06:19;;;;;;;13.20;9.68;;;2.60;99.90;;;;;;2006595;29;20041;-76
2023/11/28 00:07:19;;;;;;;10.68;8.27;;;2.60;99.90;;;;;;2004821;29;20496;-75
2023/11/28 00:08:20;;;;;;;13.70;10.43;;;2.60;99.90;;;;;;2002618;29;20033;-73
2023/11/28 00:09:21;;;;;;;14.90;11.43;;;2.70;99.90;;;;;;2001490;29;20099;-75
2023/11/28 00:10:21;;;;;;;11.82;9.20;;;2.70;99.90;;;;;;2007914;29;20509;-75
2023/11/28 00:11:23;;;;;;;10.98;9.07;;;2.70;99.90;;;;;;1995872;29;20037;-75
2023/11/28 00:12:24;;;;;;;13.65;10.20;;;2.70;99.90;;;;;;1994145;29;20038;-74
2023/11/28 00:13:28;;;;;;;12.68;10.00;;;2.60;99.90;;;;;;1996863;29;20067;-75
2023/11/28 00:14:28;;;;;;;10.13;7.90;;;2.60;99.90;;;;;;2004338;29;20086;-76
2023/11/28 00:15:29;;;;;;;10.00;8.05;;;2.60;99.90;;;;;;2005202;29;20589;-75
2023/11/28 00:16:30;;;;;;;9.88;8.05;;;2.60;99.90;;;;;;2006377;29;20033;-76
2023/11/28 00:17:31;;;;;;;12.63;9.32;;;2.60;99.90;;;;;;2005153;29;20030;-76
2023/11/28 00:18:31;;;;;;;10.93;8.85;;;2.60;99.90;;;;;;2006144;29;20082;-75
2023/11/28 00:19:32;;;;;;;13.43;10.52;;;2.60;99.90;;;;;;2006930;29;20556;-75
2023/11/28 00:20:32;;;;;;;11.48;9.07;;;2.60;99.90;;;;;;2000574;29;20395;-76
2023/11/28 00:21:33;;;;;;;13.30;10.02;;;2.50;99.90;;;;;;1996527;29;20065;-76
2023/11/28 00:22:34;;;;;;;15.10;9.93;;;2.60;99.90;;;;;;2006319;29;20033;-76
2023/11/28 00:23:34;;;;;;;16.35;11.10;;;2.60;99.90;;;;;;1999348;29;20033;-76
2023/11/28 00:24:35;;;;;;;18.98;12.32;;;2.60;99.90;;;;;;1998620;29;20041;-75
2023/11/28 00:25:35;;;;;;;16.02;11.07;;;2.60;99.90;;;;;;2005217;29;20033;-76
2023/11/28 00:26:36;;;;;;;15.63;11.00;;;2.70;99.90;;;;;;2000482;29;20404;-75
2023/11/28 00:27:37;;;;;;;13.85;9.95;;;2.70;99.90;;;;;;1998824;29;20424;-76
2023/11/28 00:28:37;;;;;;;12.85;9.15;;;2.60;99.90;;;;;;1998492;29;20030;-76
2023/11/28 00:29:38;;;;;;;15.60;10.70;;;2.60;99.90;;;;;;2000456;29;20090;-76
2023/11/28 00:30:39;;;;;;;15.57;11.45;;;2.60;99.90;;;;;;1998659;29;20058;-74
2023/11/28 00:31:43;;;;;;;12.40;9.30;;;2.60;99.90;;;;;;1997861;29;20792;-75
2023/11/28 00:32:44;;;;;;;15.65;11.15;;;2.50;99.90;;;;;;1997062;29;20030;-76
2023/11/28 00:33:45;;;;;;;24.15;16.08;;;2.60;99.90;;;;;;1999653;29;20049;-75
2023/11/28 00:34:45;;;;;;;16.60;10.90;;;2.60;99.90;;;;;;1994103;29;20524;-76
2023/11/28 00:35:46;;;;;;;14.00;10.35;;;2.50;99.90;;;;;;1999524;29;20063;-76
2023/11/28 00:36:48;;;;;;;14.32;9.57;;;2.50;99.90;;;;;;2008190;29;20064;-75
2023/11/28 00:37:48;;;;;;;12.75;8.93;;;2.50;99.90;;;;;;2008502;29;20274;-75
2023/11/28 00:38:49;;;;;;;12.23;8.93;;;2.50;99.90;;;;;;2005133;29;20046;-77
2023/11/28 00:39:50;;;;;;;12.15;9.07;;;2.60;99.90;;;;;;2008707;29;20112;-75
2023/11/28 00:40:52;;;;;;;17.83;11.30;;;2.50;99.90;;;;;;2004925;29;20029;-74
2023/11/28 00:41:54;;;;;;;17.25;12.43;;;2.50;99.90;;;;;;2001790;29;20053;-75
2023/11/28 00:42:55;;;;;;;15.77;11.15;;;2.50;99.90;;;;;;1997758;29;20690;-77
2023/11/28 00:43:55;;;;;;;15.48;12.40;;;2.50;99.90;;;;;;2000834;29;20419;-76
2023/11/28 00:44:56;;;;;;;16.65;12.60;;;2.50;99.90;;;;;;2005492;29;20026;-76
2023/11/28 00:45:56;;;;;;;17.40;13.38;;;2.60;99.90;;;;;;2007484;29;20457;-76
2023/11/28 00:46:57;;;;;;;16.48;12.50;;;2.60;99.90;;;;;;2008196;29;20032;-76
2023/11/28 00:47:58;;;;;;;14.70;10.73;;;2.60;99.90;;;;;;2005933;29;20344;-79
2023/11/28 00:48:58;;;;;;;16.75;12.48;;;2.50;99.90;;;;;;2007769;29;20040;-73
2023/11/28 00:49:59;;;;;;;16.48;11.50;;;2.50;99.90;;;;;;2006473;29;20024;-79
2023/11/28 00:51:00;;;;;;;15.75;11.63;;;2.50;99.90;;;;;;2006336;29;20026;-83
2023/11/28 00:52:00;;;;;;;15.38;11.15;;;2.40;99.90;;;;;;1999201;29;20079;-79
2023/11/28 00:53:02;;;;;;;18.63;13.45;;;2.50;99.90;;;;;;1991162;29;20044;-80
2023/11/28 00:54:02;;;;;;;15.95;11.55;;;2.50;99.90;;;;;;2000533;29;20076;-79
2023/11/28 00:55:03;;;;;;;13.73;10.75;;;2.50;99.90;;;;;;1996757;29;20055;-80
2023/11/28 00:56:04;;;;;;;21.67;14.65;;;2.50;99.90;;;;;;1991557;29;20178;-80
2023/11/28 00:57:05;;;;;;;27.85;16.83;;;2.50;99.90;;;;;;1998384;29;20041;-80
2023/11/28 00:58:06;;;;;;;20.85;13.77;;;2.50;99.90;;;;;;1997968;29;20030;-80
2023/11/28 00:59:06;;;;;;;16.88;12.13;;;2.50;99.90;;;;;;2004455;29;20040;-79
2023/11/28 01:00:08;;;;;;;20.33;13.82;;;2.50;99.90;;;;;;2008447;29;20670;-79
2023/11/28 01:01:08;;;;;;;23.45;14.00;;;2.50;99.90;;;;;;2004297;29;20037;-79
2023/11/28 01:02:09;;;;;;;18.63;12.48;;;2.50;99.90;;;;;;2004595;29;20497;-79
2023/11/28 01:03:09;;;;;;;17.38;12.18;;;2.40;99.90;;;;;;1996199;29;20517;-80
2023/11/28 01:04:10;;;;;;;15.55;11.35;;;2.40;99.90;;;;;;1990268;29;23043;-80
2023/11/28 01:05:11;;;;;;;16.23;11.68;;;2.40;99.90;;;;;;1996827;29;20102;-79
2023/11/28 01:06:12;;;;;;;20.70;12.95;;;2.40;99.90;;;;;;1992975;29;20090;-81
2023/11/28 01:07:12;;;;;;;18.15;12.77;;;2.40;99.90;;;;;;1999257;29;20606;-80
2023/11/28 01:08:13;;;;;;;17.20;12.40;;;2.40;99.90;;;;;;1994855;29;20121;-79
2023/11/28 01:09:14;;;;;;;19.92;12.20;;;2.50;99.90;;;;;;2007336;29;20037;-79
2023/11/28 01:10:15;;;;;;;21.02;13.27;;;2.50;99.90;;;;;;2004710;29;20047;-80
2023/11/28 01:11:16;;;;;;;18.92;12.75;;;2.50;99.90;;;;;;2009000;29;20133;-79
2023/11/28 01:12:16;;;;;;;20.95;14.57;;;2.40;99.90;;;;;;1998166;29;20045;-79
2023/11/28 01:13:17;;;;;;;19.23;12.57;;;2.40;99.90;;;;;;2005762;29;20022;-78
2023/11/28 01:14:18;;;;;;;22.92;14.30;;;2.40;99.90;;;;;;2007213;29;20025;-79
2023/11/28 01:15:18;;;;;;;18.90;12.60;;;2.40;99.90;;;;;;2003709;29;20034;-79
2023/11/28 01:16:19;;;;;;;18.05;12.90;;;2.50;99.90;;;;;;2009084;29;20050;-79
2023/11/28 01:17:19;;;;;;;20.15;13.90;;;2.50;99.90;;;;;;2007319;29;20030;-79
2023/11/28 01:18:21;;;;;;;18.63;13.18;;;2.50;99.90;;;;;;1998116;29;20114;-79
2023/11/28 01:19:21;;;;;;;19.98;13.27;;;2.50;99.90;;;;;;2000653;29;20054;-79
2023/11/28 01:20:22;;;;;;;16.38;11.75;;;2.40;99.90;;;;;;1989907;29;20030;-79
2023/11/28 01:21:23;;;;;;;17.25;12.40;;;2.40;99.90;;;;;;1993335;29;20445;-79
2023/11/28 01:22:23;;;;;;;17.27;12.75;;;2.40;99.90;;;;;;2004229;29;20075;-79
2023/11/28 01:23:24;;;;;;;16.55;12.07;;;2.30;99.90;;;;;;2000450;29;20037;-80
2023/11/28 01:24:24;;;;;;;18.98;13.90;;;2.30;99.90;;;;;;1994214;29;20065;-80
2023/11/28 01:25:25;;;;;;;16.23;12.20;;;2.30;99.90;;;;;;1997458;29;20026;-79
2023/11/28 01:26:26;;;;;;;19.42;13.48;;;2.30;99.90;;;;;;2000336;29;20442;-79
2023/11/28 01:27:26;;;;;;;17.90;13.40;;;2.20;99.90;;;;;;1997026;29;20205;-78
2023/11/28 01:28:27;;;;;;;19.90;12.40;;;2.20;99.90;;;;;;1999941;29;20116;-79
2023/11/28 01:29:27;;;;;;;19.60;14.32;;;2.20;99.90;;;;;;1999452;29;20037;-79
2023/11/28 01:30:28;;;;;;;18.25;12.50;;;2.20;99.90;;;;;;2000341;29;20078;-79
2023/11/28 01:31:30;;;;;;;22.25;15.40;;;2.20;99.90;;;;;;2007181;29;20362;-79
2023/11/28 01:32:31;;;;;;;20.05;13.90;;;2.20;99.90;;;;;;1995439;29;20048;-79
2023/11/28 01:33:32;;;;;;;20.05;14.35;;;2.20;99.90;;;;;;1996140;29;20038;-79
2023/11/28 01:34:32;;;;;;;19.25;13.68;;;2.20;99.90;;;;;;2007757;29;20037;-79
2023/11/28 01:35:33;;;;;;;17.38;12.27;;;2.20;99.90;;;;;;1998498;29;20037;-80
2023/11/28 01:36:34;;;;;;;17.55;12.93;;;2.20;99.90;;;;;;2000130;29;20475;-79
2023/11/28 01:37:36;;;;;;;18.60;13.60;;;2.20;99.90;;;;;;1998160;29;20029;-80
2023/11/28 01:38:37;;;;;;;21.58;15.05;;;2.20;99.90;;;;;;2006967;29;20446;-79
2023/11/28 01:39:37;;;;;;;20.10;14.27;;;2.20;99.90;;;;;;2009158;29;20025;-79
2023/11/28 01:40:38;;;;;;;18.20;13.02;;;2.20;99.90;;;;;;2007939;29;20041;-80
2023/11/28 01:41:39;;;;;;;20.20;13.60;;;2.20;99.90;;;;;;1998546;29;20500;-80
2023/11/28 01:42:40;;;;;;;18.35;13.40;;;2.10;99.90;;;;;;2000790;29;20078;-80
2023/11/28 01:43:40;;;;;;;17.17;12.52;;;2.20;99.90;;;;;;2007743;29;20033;-80
2023/11/28 01:44:41;;;;;;;16.38;12.38;;;2.20;99.90;;;;;;2006242;29;20117;-80
2023/11/28 01:45:41;;;;;;;15.57;12.18;;;2.20;99.90;;;;;;2000272;29;20120;-80
2023/11/28 01:46:44;;;;;;;17.67;12.20;;;2.20;99.90;;;;;;1998829;29;20259;-80
2023/11/28 01:47:44;;;;;;;16.08;11.93;;;2.20;99.90;;;;;;1990225;29;20030;-80
2023/11/28 01:48:45;;;;;;;16.85;12.18;;;2.20;99.90;;;;;;2000384;29;20106;-81
2023/11/28 01:49:46;;;;;;;16.15;12.20;;;2.20;99.90;;;;;;1992648;29;20037;-80
2023/11/28 01:50:47;;;;;;;16.88;12.30;;;2.20;99.90;;;;;;1990642;29;20638;-81
2023/11/28 01:51:48;;;;;;;15.65;11.75;;;2.20;99.90;;;;;;2007868;29;20034;-80
2023/11/28 01:52:49;;;;;;;17.08;12.00;;;2.30;99.90;;;;;;2000359;29;20469;-80
2023/11/28 01:53:54;;;;;;;16.42;11.98;;;2.30;99.90;;;;;;1995042;29;20104;-80
2023/11/28 01:54:55;;;;;;;16.15;12.27;;;2.30;99.90;;;;;;2002085;29;20053;-79
2023/11/28 01:55:55;;;;;;;18.58;12.88;;;2.20;99.90;;;;;;2004274;29;20030;-79
2023/11/28 01:56:56;;;;;;;18.27;12.70;;;2.20;99.90;;;;;;1996884;29;20029;-81
2023/11/28 01:57:57;;;;;;;16.58;12.50;;;2.20;99.90;;;;;;1999939;29;20154;-81
2023/11/28 01:58:59;;;;;;;16.63;12.13;;;2.20;99.90;;;;;;2000069;29;20070;-80
2023/11/28 02:00:03;;;;;;;17.23;12.73;;;2.20;99.90;;;;;;1997159;29;20148;-81
2023/11/28 02:01:14;;;;;;;16.65;12.50;;;2.20;99.90;;;;;;2003792;29;20679;-80
2023/11/28 02:02:15;;;;;;;16.17;11.93;;;2.10;99.90;;;;;;1999819;29;20038;-80
2023/11/28 02:03:16;;;;;;;17.10;13.05;;;2.10;99.90;;;;;;1996114;29;20424;-80
2023/11/28 02:04:16;;;;;;;17.15;12.45;;;2.10;99.90;;;;;;2004388;29;20064;-80
2023/11/28 02:05:18;;;;;;;18.55;13.13;;;2.10;99.90;;;;;;1993578;29;20057;-78
2023/11/28 02:06:19;;;;;;;18.13;12.85;;;2.10;99.90;;;;;;1999339;29;20042;-79
2023/11/28 02:07:20;;;;;;;16.40;12.45;;;2.10;99.90;;;;;;1991646;29;20022;-80
2023/11/28 02:08:22;;;;;;;17.48;13.02;;;2.10;99.90;;;;;;1996798;29;20033;-79
2023/11/28 02:09:24;;;;;;;18.88;13.50;;;2.10;99.90;;;;;;1999986;29;20033;-80
2023/11/28 02:10:24;;;;;;;17.15;13.00;;;2.20;99.90;;;;;;1999772;29;20102;-78
2023/11/28 02:11:25;;;;;;;19.50;13.10;;;2.10;99.90;;;;;;1988679;29;20019;-79
2023/11/28 02:12:26;;;;;;;20.05;14.05;;;2.10;99.90;;;;;;1993664;29;20505;-79
2023/11/28 02:13:26;;;;;;;17.55;13.05;;;2.10;99.90;;;;;;2003398;29;20572;-79
2023/11/28 02:14:27;;;;;;;19.00;14.05;;;2.10;99.90;;;;;;2002947;29;20037;-80
2023/11/28 02:15:41;;;;;;;21.75;14.50;;;2.10;99.90;;;;;;2006850;29;20034;-79
2023/11/28 02:16:42;;;;;;;20.25;13.93;;;2.10;99.90;;;;;;1995996;29;20034;-79
2023/11/28 02:17:42;;;;;;;19.42;13.50;;;2.10;99.90;;;;;;1998016;29;20076;-79
2023/11/28 02:18:43;;;;;;;18.75;13.32;;;2.20;99.90;;;;;;1991318;29;20038;-79
2023/11/28 02:19:47;;;;;;;18.98;13.73;;;2.20;99.90;;;;;;1989292;29;20785;-80
2023/11/28 02:20:47;;;;;;;20.50;13.90;;;2.20;99.90;;;;;;1996421;29;20302;-80
2023/11/28 02:21:48;;;;;;;19.83;14.05;;;2.20;99.90;;;;;;1995389;29;20037;-81
2023/11/28 02:22:49;;;;;;;21.33;14.52;;;2.10;99.90;;;;;;2004960;29;20572;-80
2023/11/28 02:23:50;;;;;;;21.48;14.10;;;2.10;99.90;;;;;;2001552;29;20030;-82
2023/11/28 02:24:53;;;;;;;20.60;14.38;;;2.10;99.90;;;;;;2003773;29;20021;-80
2023/11/28 02:25:56;;;;;;;19.38;14.25;;;2.10;99.90;;;;;;1998382;29;20715;-80
2023/11/28 02:26:57;;;;;;;21.45;14.73;;;2.10;99.90;;;;;;2000310;29;20604;-79
2023/11/28 02:27:58;;;;;;;20.75;14.25;;;2.10;99.90;;;;;;2008201;29;20169;-79
2023/11/28 02:28:58;;;;;;;20.17;14.30;;;2.10;99.90;;;;;;2004569;29;20588;-80
2023/11/28 02:29:59;;;;;;;21.83;14.77;;;2.10;99.90;;;;;;1999615;29;20117;-80
2023/11/28 02:31:00;;;;;;;22.70;15.52;;;2.00;99.90;;;;;;1999340;29;20108;-80
2023/11/28 02:32:00;;;;;;;23.55;15.50;;;2.10;99.90;;;;;;2000221;29;20049;-80
2023/11/28 02:33:01;;;;;;;21.02;14.98;;;2.10;99.90;;;;;;1996693;29;20532;-80
2023/11/28 02:34:02;;;;;;;21.63;15.05;;;2.10;99.90;;;;;;1999020;29;20038;-79
2023/11/28 02:35:03;;;;;;;23.33;15.60;;;2.10;99.90;;;;;;2004406;29;20548;-80
2023/11/28 02:36:04;;;;;;;24.65;15.25;;;2.10;99.90;;;;;;1996149;29;20038;-80
2023/11/28 02:37:04;;;;;;;22.70;15.73;;;2.00;99.90;;;;;;1999851;29;20423;-80
2023/11/28 02:38:05;;;;;;;22.27;15.73;;;2.00;99.90;;;;;;1997289;29;20110;-81
2023/11/28 02:39:05;;;;;;;22.75;15.77;;;2.00;99.90;;;;;;1994583;29;20349;-79
2023/11/28 02:40:06;;;;;;;22.50;15.25;;;2.00;99.90;;;;;;1996157;29;20034;-72
2023/11/28 02:41:07;;;;;;;23.42;16.10;;;2.00;99.90;;;;;;2003450;29;20080;-72
2023/11/28 02:42:08;;;;;;;23.60;15.95;;;2.00;99.90;;;;;;2005566;29;20060;-72
2023/11/28 02:43:09;;;;;;;24.77;16.60;;;2.00;99.90;;;;;;1996514;29;20038;-73
2023/11/28 02:44:11;;;;;;;25.65;16.38;;;2.00;99.90;;;;;;1997140;29;20496;-72
2023/11/28 02:45:12;;;;;;;24.25;16.13;;;2.00;99.90;;;;;;2005078;29;20037;-72
2023/11/28 02:46:13;;;;;;;23.75;16.17;;;2.00;99.90;;;;;;1991952;29;20471;-72
2023/11/28 02:47:14;;;;;;;23.98;16.33;;;2.10;99.90;;;;;;1980708;29;20063;-72
2023/11/28 02:48:14;;;;;;;25.92;16.00;;;2.10;99.90;;;;;;1995581;29;20041;-72
2023/11/28 02:49:15;;;;;;;24.10;16.60;;;2.10;99.90;;;;;;1996222;29;20749;-72
2023/11/28 02:50:16;;;;;;;25.92;16.85;;;2.10;99.90;;;;;;1999222;29;20133;-73
2023/11/28 02:51:19;;;;;;;25.58;16.80;;;2.10;99.90;;;;;;1998148;29;20585;-72
2023/11/28 02:52:20;;;;;;;25.90;16.90;;;2.10;99.90;;;;;;1998291;29;20057;-73
2023/11/28 02:53:20;;;;;;;24.10;16.65;;;2.10;99.90;;;;;;1996204;29;20027;-73
2023/11/28 02:54:21;;;;;;;24.73;16.63;;;2.10;99.90;;;;;;1994550;29;20089;-72
2023/11/28 02:55:22;;;;;;;25.15;16.73;;;2.10;99.90;;;;;;1996142;29;20030;-73
2023/11/28 02:56:23;;;;;;;26.30;17.65;;;2.10;99.90;;;;;;1999459;29;20037;-74
2023/11/28 02:57:23;;;;;;;25.33;16.75;;;2.10;99.90;;;;;;1999589;29;20112;-72
2023/11/28 02:58:24;;;;;;;25.55;16.77;;;2.10;99.90;;;;;;2003554;29;20096;-72
2023/11/28 02:59:26;;;;;;;27.08;17.80;;;2.10;99.90;;;;;;2006563;29;20219;-72
2023/11/28 03:00:26;;;;;;;24.52;16.98;;;2.10;99.90;;;;;;2001806;29;20034;-73
2023/11/28 03:01:27;;;;;;;27.48;16.95;;;2.00;99.90;;;;;;1995743;29;20462;-72
2023/11/28 03:02:29;;;;;;;26.10;17.10;;;2.10;99.90;;;;;;1999196;29;20053;-72
2023/11/28 03:03:29;;;;;;;28.45;18.15;;;2.00;99.90;;;;;;1995984;29;20033;-72
2023/11/28 03:04:30;;;;;;;27.70;18.05;;;2.00;99.90;;;;;;1995573;29;20417;-72
2023/11/28 03:05:31;;;;;;;27.33;18.40;;;2.00;99.90;;;;;;2003477;29;20025;-72
2023/11/28 03:06:31;;;;;;;29.98;19.23;;;2.10;99.90;;;;;;2007063;29;20043;-72
2023/11/28 03:07:32;;;;;;;30.75;19.92;;;2.10;99.90;;;;;;1996100;29;20428;-73
2023/11/28 03:08:33;;;;;;;29.85;19.33;;;2.10;99.90;;;;;;1996818;29;20717;-72
2023/11/28 03:09:33;;;;;;;29.52;19.17;;;2.10;99.90;;;;;;1999321;29;20089;-72
2023/11/28 03:10:34;;;;;;;31.45;20.35;;;2.10;99.90;;;;;;2006809;29;20045;-73
2023/11/28 03:11:34;;;;;;;31.15;20.35;;;2.10;99.90;;;;;;2000234;29;20389;-73
2023/11/28 03:12:35;;;;;;;32.85;21.35;;;2.20;99.90;;;;;;1998285;29;20065;-72
2023/11/28 03:13:36;;;;;;;34.70;21.63;;;2.10;99.90;;;;;;1993094;29;20110;-72
2023/11/28 03:14:37;;;;;;;34.50;21.80;;;2.10;99.90;;;;;;1995348;29;20073;-72
2023/11/28 03:15:37;;;;;;;41.28;24.15;;;2.10;99.90;;;;;;1995551;29;20026;-72
2023/11/28 03:16:38;;;;;;;48.22;26.55;;;2.20;99.90;;;;;;2004073;29;20115;-72
2023/11/28 03:17:39;;;;;;;41.55;24.30;;;2.20;99.90;;;;;;2003935;29;20037;-72
2023/11/28 03:18:40;;;;;;;43.30;25.80;;;2.20;99.90;;;;;;1995322;29;20032;-73
2023/11/28 03:19:41;;;;;;;43.35;25.83;;;2.20;99.90;;;;;;1999184;29;20037;-72
2023/11/28 03:20:41;;;;;;;42.67;25.10;;;2.20;99.90;;;;;;1997094;29;20098;-72
2023/11/28 03:21:42;;;;;;;40.58;24.98;;;2.20;99.90;;;;;;1997589;29;20049;-72
2023/11/28 03:22:42;;;;;;;40.85;23.92;;;2.20;99.90;;;;;;1996667;29;20044;-72
2023/11/28 03:23:43;;;;;;;42.83;25.98;;;2.30;99.90;;;;;;1999161;29;20057;-73
2023/11/28 03:24:44;;;;;;;36.45;23.05;;;2.30;99.90;;;;;;2004479;29;20034;-72
2023/11/28 03:25:44;;;;;;;37.13;23.73;;;2.30;99.90;;;;;;2002875;29;20037;-72
2023/11/28 03:26:45;;;;;;;39.65;24.13;;;2.30;99.90;;;;;;1999159;29;20405;-72
2023/11/28 03:27:48;;;;;;;41.33;24.58;;;2.30;99.90;;;;;;1998043;29;20596;-72
2023/11/28 03:28:49;;;;;;;39.47;24.45;;;2.30;99.90;;;;;;1996674;29;20636;-72
2023/11/28 03:29:50;;;;;;;36.47;23.08;;;2.30;99.90;;;;;;1999051;29;20038;-72
2023/11/28 03:30:50;;;;;;;40.20;24.45;;;2.30;99.90;;;;;;1999628;29;20530;-72
2023/11/28 03:31:51;;;;;;;41.83;25.05;;;2.30;99.90;;;;;;1987935;29;20493;-73
2023/11/28 03:32:52;;;;;;;44.33;25.58;;;2.30;99.90;;;;;;1995698;29;20038;-72
2023/11/28 03:33:53;;;;;;;37.25;23.08;;;2.30;99.90;;;;;;2003734;29;20029;-72
2023/11/28 03:34:53;;;;;;;42.40;25.05;;;2.30;99.90;;;;;;2003749;29;20120;-72
2023/11/28 03:35:54;;;;;;;38.13;23.85;;;2.30;99.90;;;;;;2006953;29;20037;-71
2023/11/28 03:36:54;;;;;;;38.03;23.80;;;2.30;99.90;;;;;;2003956;29;20053;-71
2023/11/28 03:37:57;;;;;;;38.75;24.38;;;2.40;99.90;;;;;;1995680;29;20060;-72
2023/11/28 03:38:57;;;;;;;41.08;25.10;;;2.40;99.90;;;;;;1991735;29;20046;-72
2023/11/28 03:39:58;;;;;;;39.08;24.38;;;2.40;99.90;;;;;;1986289;29;20038;-72
2023/11/28 03:41:00;;;;;;;36.60;23.83;;;2.40;99.90;;;;;;1999254;29;20137;-72
2023/11/28 03:42:00;;;;;;;39.20;24.05;;;2.40;99.90;;;;;;1992984;29;20517;-72
2023/11/28 03:43:01;;;;;;;38.80;24.17;;;2.30;99.90;;;;;;1995895;29;20037;-72
2023/11/28 03:44:01;;;;;;;39.47;24.42;;;2.30;99.90;;;;;;2007458;29;20041;-73
2023/11/28 03:45:03;;;;;;;38.88;24.30;;;2.40;99.90;;;;;;1999303;29;20560;-72
2023/11/28 03:46:03;;;;;;;38.55;24.13;;;2.30;99.90;;;;;;1996289;29;20523;-72
2023/11/28 03:47:05;;;;;;;42.42;25.85;;;2.30;99.90;;;;;;1998882;29;20034;-72
2023/11/28 03:48:05;;;;;;;39.22;24.63;;;2.30;99.90;;;;;;1999183;29;20069;-72
2023/11/28 03:49:06;;;;;;;42.70;25.65;;;2.30;99.90;;;;;;1996313;29;20130;-72
2023/11/28 03:50:07;;;;;;;40.25;25.13;;;2.30;99.90;;;;;;1998694;29;20515;-72
2023/11/28 03:51:08;;;;;;;40.42;24.80;;;2.30;99.90;;;;;;1999223;29;20109;-72
2023/11/28 03:52:08;;;;;;;41.67;25.48;;;2.30;99.90;;;;;;2004410;29;20037;-72
2023/11/28 03:53:09;;;;;;;43.38;25.70;;;2.30;99.90;;;;;;2006410;29;20485;-72
2023/11/28 03:54:10;;;;;;;41.53;25.30;;;2.30;99.90;;;;;;1997377;29;20022;-73
2023/11/28 03:55:12;;;;;;;41.58;25.40;;;2.30;99.90;;;;;;1999251;29;20058;-72
2023/11/28 03:56:14;;;;;;;43.83;26.20;;;2.30;99.90;;;;;;1995534;29;20029;-73
2023/11/28 03:57:16;;;;;;;43.40;25.25;;;2.30;99.90;;;;;;1995849;29;20026;-72
2023/11/28 03:58:17;;;;;;;43.75;25.95;;;2.30;99.90;;;;;;1995609;29;20034;-73
2023/11/28 03:59:18;;;;;;;46.08;26.48;;;2.30;99.90;;;;;;1995960;29;20054;-73
2023/11/28 04:00:19;;;;;;;42.67;26.48;;;2.30;99.90;;;;;;1995385;29;20697;-74
2023/11/28 04:01:19;;;;;;;39.80;25.00;;;2.20;99.90;;;;;;1997659;29;20145;-71
2023/11/28 04:02:20;;;;;;;41.63;25.40;;;2.30;99.90;;;;;;1997215;29;20582;-72
2023/11/28 04:03:21;;;;;;;41.67;25.95;;;2.30;99.90;;;;;;1996937;29;20025;-71
2023/11/28 04:04:22;;;;;;;45.58;27.17;;;2.30;99.90;;;;;;1991366;29;20040;-74
2023/11/28 04:05:23;;;;;;;43.90;26.77;;;2.20;99.90;;;;;;1998535;29;20520;-74
2023/11/28 04:06:24;;;;;;;40.33;26.02;;;2.20;99.90;;;;;;1999768;29;20469;-73
2023/11/28 04:07:24;;;;;;;42.63;26.02;;;2.20;99.90;;;;;;1995856;29;20591;-73
2023/11/28 04:08:25;;;;;;;40.80;25.23;;;2.20;99.90;;;;;;2000927;29;20492;-73
2023/11/28 04:09:25;;;;;;;40.47;24.98;;;2.30;99.90;;;;;;1996573;29;20436;-73
2023/11/28 04:10:26;;;;;;;42.03;25.55;;;2.20;99.90;;;;;;1992205;29;20082;-75
2023/11/28 04:11:27;;;;;;;41.75;24.95;;;2.20;99.90;;;;;;2002144;29;20041;-72
2023/11/28 04:12:28;;;;;;;38.45;24.50;;;2.20;99.90;;;;;;2003421;29;20030;-72
2023/11/28 04:13:28;;;;;;;39.65;24.67;;;2.20;99.90;;;;;;2006331;29;20446;-73
2023/11/28 04:14:29;;;;;;;38.85;24.83;;;2.20;99.90;;;;;;1998683;29;20048;-72
2023/11/28 04:15:30;;;;;;;39.90;25.38;;;2.20;99.90;;;;;;1992311;29;20416;-73
2023/11/28 04:16:31;;;;;;;39.63;25.30;;;2.20;99.90;;;;;;1995191;29;20412;-73
2023/11/28 04:17:31;;;;;;;39.38;24.95;;;2.20;99.90;;;;;;1987921;29;20113;-73
2023/11/28 04:18:32;;;;;;;41.40;25.98;;;2.20;99.90;;;;;;1998757;29;20053;-72
2023/11/28 04:19:33;;;;;;;39.88;24.85;;;2.10;99.90;;;;;;1999037;29;20365;-73
2023/11/28 04:20:35;;;;;;;40.35;24.70;;;2.10;99.90;;;;;;1988001;29;20026;-72
2023/11/28 04:21:36;;;;;;;40.63;25.42;;;2.10;99.90;;;;;;1998706;29;20071;-72
2023/11/28 04:22:37;;;;;;;40.28;24.98;;;2.10;99.90;;;;;;1998797;29;20061;-72
2023/11/28 04:23:39;;;;;;;40.20;25.08;;;2.10;99.90;;;;;;1996385;29;20032;-73
2023/11/28 04:24:41;;;;;;;40.50;25.25;;;2.00;99.90;;;;;;1997911;29;20086;-73
2023/11/28 04:25:44;;;;;;;39.80;25.30;;;2.10;99.90;;;;;;1999539;29;20117;-73
2023/11/28 04:26:46;;;;;;;41.45;24.30;;;2.10;99.90;;;;;;1996914;29;20030;-72
2023/11/28 04:27:46;;;;;;;40.42;25.60;;;2.10;99.90;;;;;;2001011;29;20029;-73
2023/11/28 04:28:47;;;;;;;41.90;26.52;;;2.10;99.90;;;;;;1995859;29;20026;-73
2023/11/28 04:29:49;;;;;;;39.65;25.05;;;2.10;99.90;;;;;;1997626;29;20043;-73
2023/11/28 04:30:50;;;;;;;40.65;24.73;;;2.10;99.90;;;;;;1997722;29;20614;-72
2023/11/28 04:31:51;;;;;;;37.65;23.33;;;2.10;99.90;;;;;;1991626;29;20564;-72
2023/11/28 04:32:52;;;;;;;40.25;24.33;;;2.20;99.90;;;;;;1999138;29;20041;-72
2023/11/28 04:33:53;;;;;;;37.25;23.45;;;2.20;99.90;;;;;;1998290;29;20380;-73
2023/11/28 04:34:54;;;;;;;39.65;23.98;;;2.20;99.90;;;;;;1996237;29;20437;-72
2023/11/28 04:35:55;;;;;;;44.10;24.17;;;2.20;99.90;;;;;;2006781;29;20037;-73
2023/11/28 04:36:56;;;;;;;36.83;23.98;;;2.10;99.90;;;;;;1998308;29;20043;-72
2023/11/28 04:37:57;;;;;;;39.92;23.90;;;2.10;99.90;;;;;;1996245;29;20513;-73
2023/11/28 04:38:59;;;;;;;43.45;24.63;;;2.10;99.90;;;;;;2000083;29;20038;-72
2023/11/28 04:40:00;;;;;;;36.85;23.48;;;2.10;99.90;;;;;;1999939;29;20165;-73
2023/11/28 04:41:02;;;;;;;41.05;24.77;;;2.10;99.90;;;;;;1996614;29;20034;-72
2023/11/28 04:42:02;;;;;;;38.33;24.08;;;2.10;99.90;;;;;;1993072;29;20086;-71
2023/11/28 04:43:03;;;;;;;39.38;24.60;;;2.00;99.90;;;;;;2000393;29;20037;-72
2023/11/28 04:44:04;;;;;;;39.25;24.77;;;2.00;99.90;;;;;;1997204;29;20665;-72
2023/11/28 04:45:06;;;;;;;40.47;25.33;;;2.00;99.90;;;;;;2008403;29;20093;-71
2023/11/28 04:46:07;;;;;;;39.33;25.25;;;2.00;99.90;;;;;;2000921;29;20476;-73
2023/11/28 04:47:08;;;;;;;41.85;25.50;;;2.00;99.90;;;;;;1999133;29;20044;-72
2023/11/28 04:48:08;;;;;;;41.92;24.73;;;1.90;99.90;;;;;;1996616;29;20406;-72
2023/11/28 04:49:12;;;;;;;40.17;25.05;;;1.90;99.90;;;;;;1999722;29;20021;-72
2023/11/28 04:50:12;;;;;;;39.38;24.58;;;1.90;99.90;;;;;;1997862;29;20038;-72
2023/11/28 04:51:14;;;;;;;42.85;25.70;;;1.90;99.90;;;;;;1998256;29;20030;-72
2023/11/28 04:52:14;;;;;;;37.95;24.45;;;1.90;99.90;;;;;;2000277;29;20131;-72
2023/11/28 04:53:15;;;;;;;41.85;25.95;;;1.90;99.90;;;;;;1998076;29;20063;-72
2023/11/28 04:54:16;;;;;;;41.63;25.20;;;1.90;99.90;;;;;;1994431;29;20035;-73
2023/11/28 04:55:17;;;;;;;38.85;25.05;;;1.80;99.90;;;;;;1998347;29;20030;-73
2023/11/28 04:56:17;;;;;;;40.20;25.05;;;1.90;99.90;;;;;;1992857;29;20400;-73
2023/11/28 04:57:19;;;;;;;41.25;25.45;;;1.90;99.90;;;;;;2000254;29;20113;-72
2023/11/28 04:58:22;;;;;;;40.53;24.95;;;1.90;99.90;;;;;;1998163;29;20478;-72
2023/11/28 04:59:23;;;;;;;41.22;25.63;;;1.90;99.90;;;;;;2007435;29;20037;-72
2023/11/28 05:00:23;;;;;;;40.97;25.65;;;2.00;99.90;;;;;;2007746;29;20409;-73
2023/11/28 05:01:24;;;;;;;42.45;26.38;;;2.00;99.90;;;;;;1997401;29;20041;-72
2023/11/28 05:02:25;;;;;;;40.83;25.92;;;1.90;99.90;;;;;;1994558;29;20098;-73
2023/11/28 05:03:26;;;;;;;43.20;26.27;;;1.90;99.90;;;;;;1997466;29;20046;-72
2023/11/28 05:04:27;;;;;;;40.22;25.27;;;1.90;99.90;;;;;;2004567;29;20661;-72
2023/11/28 05:05:27;;;;;;;42.42;25.98;;;2.00;99.90;;;;;;2002952;29;20283;-72
2023/11/28 05:06:29;;;;;;;39.75;25.00;;;2.20;99.90;;;;;;2001925;29;20022;-72
2023/11/28 05:07:30;;;;;;;39.17;25.48;;;2.40;99.90;;;;;;2005057;29;20048;-72
2023/11/28 05:08:32;;;;;;;41.10;25.58;;;2.50;99.90;;;;;;2000243;29;20017;-73
2023/11/28 05:09:33;;;;;;;39.35;25.10;;;2.50;99.90;;;;;;1999590;29;20086;-73
2023/11/28 05:10:34;;;;;;;39.97;25.23;;;2.50;99.90;;;;;;1996312;29;20118;-72
2023/11/28 05:11:35;;;;;;;38.60;24.88;;;2.50;99.90;;;;;;2007697;29;20078;-72
2023/11/28 05:12:35;;;;;;;40.70;25.23;;;2.40;99.90;;;;;;2000124;29;20029;-72
2023/11/28 05:13:36;;;;;;;40.88;24.92;;;2.30;99.90;;;;;;1996742;29;20174;-72